createdAt,value
2019-04-21T00:00:45.633Z,13.90
2019-04-21T00:07:08.665Z,13.80
2019-04-21T00:13:08.046Z,13.80
2019-04-21T00:19:12.180Z,13.80
2019-04-21T00:25:25.224Z,13.90
2019-04-21T00:31:33.900Z,13.80
2019-04-21T00:37:41.317Z,13.80
2019-04-21T00:43:41.259Z,13.60
2019-04-21T00:49:56.849Z,13.50
2019-04-21T00:56:07.214Z,13.50
2019-04-21T01:02:05.814Z,13.30
2019-04-21T01:08:13.230Z,13.30
2019-04-21T01:14:30.070Z,13.20
2019-04-21T01:20:16.486Z,13.10
2019-04-21T01:26:24.454Z,13.00
2019-04-21T01:32:34.437Z,13.00
2019-04-21T01:38:49.689Z,12.90
2019-04-21T01:44:48.527Z,12.80
2019-04-21T01:50:51.612Z,12.70
2019-04-21T01:57:10.480Z,12.70
2019-04-21T02:03:36.195Z,12.70
2019-04-21T02:09:22.996Z,12.70
2019-04-21T02:15:30.907Z,12.70
2019-04-21T02:21:31.724Z,12.60
2019-04-21T02:27:47.163Z,12.70
2019-04-21T02:46:16.793Z,12.60
2019-04-21T02:52:23.859Z,12.60
2019-04-21T02:58:37.722Z,12.50
2019-04-21T03:04:54.260Z,12.40
2019-04-21T03:10:59.256Z,12.30
2019-04-21T03:17:05.838Z,12.20
2019-04-21T03:23:23.781Z,12.20
2019-04-21T03:29:22.402Z,12.00
2019-04-21T03:35:58.297Z,11.90
2019-04-21T03:41:30.509Z,11.80
2019-04-21T03:47:43.379Z,11.80
2019-04-21T03:53:41.424Z,11.70
2019-04-21T03:59:45.087Z,11.60
2019-04-21T04:06:42.999Z,11.60
2019-04-21T04:12:38.075Z,11.60
2019-04-21T04:18:48.733Z,11.60
2019-04-21T04:24:50.173Z,11.50
2019-04-21T04:37:05.499Z,11.30
2019-04-21T04:43:11.824Z,11.20
2019-04-21T04:49:24.749Z,11.10
2019-04-21T04:55:25.806Z,11.00
2019-04-21T05:01:32.385Z,11.10
2019-04-21T05:07:52.083Z,11.10
2019-04-21T05:13:43.440Z,11.10
2019-04-21T05:19:54.038Z,11.20
2019-04-21T05:25:37.724Z,11.20
2019-04-21T05:32:08.076Z,11.30
2019-04-21T05:38:21.408Z,11.40
2019-04-21T05:44:44.494Z,11.90
2019-04-21T05:50:32.488Z,12.40
2019-04-21T05:56:46.469Z,12.90
2019-04-21T06:03:00.760Z,13.40
2019-04-21T06:08:59.482Z,13.60
2019-04-21T06:15:27.064Z,13.80
2019-04-21T06:21:11.238Z,14.10
2019-04-21T06:27:16.330Z,14.50
2019-04-21T06:33:30.074Z,14.80
2019-04-21T06:39:40.492Z,15.10
2019-04-21T06:45:44.469Z,15.70
2019-04-21T06:51:45.510Z,16.00
2019-04-21T06:57:51.872Z,16.40
2019-04-21T07:04:08.391Z,16.20
2019-04-21T07:10:20.987Z,16.60
2019-04-21T07:16:12.016Z,16.90
2019-04-21T07:22:17.760Z,17.10
2019-04-21T07:28:25.977Z,17.50
2019-04-21T07:34:33.300Z,17.50
2019-04-21T07:40:27.463Z,18.00
2019-04-21T07:46:29.002Z,18.40
2019-04-21T07:52:55.159Z,18.30
2019-04-21T07:58:58.200Z,18.60
2019-04-21T08:05:08.809Z,18.90
2019-04-21T08:11:07.345Z,19.10
2019-04-21T08:17:09.535Z,19.40
2019-04-21T08:23:22.176Z,19.80
2019-04-21T08:29:38.057Z,20.00
2019-04-21T08:36:11.660Z,20.20
2019-04-21T08:41:31.321Z,20.50
2019-04-21T08:47:47.692Z,20.40
2019-04-21T08:53:53.558Z,20.90
2019-04-21T09:00:05.854Z,21.30
2019-04-21T09:06:13.817Z,21.30
2019-04-21T09:12:16.172Z,21.10
2019-04-21T09:18:18.562Z,21.50
2019-04-21T09:24:31.561Z,21.70
2019-04-21T09:30:15.276Z,21.70
2019-04-21T09:36:22.039Z,21.80
2019-04-21T09:42:33.256Z,21.60
2019-04-21T09:48:44.541Z,21.50
2019-04-21T09:54:48.221Z,21.60
2019-04-21T10:00:56.827Z,21.50
2019-04-21T10:06:49.837Z,22.00
2019-04-21T10:12:54.205Z,21.90
2019-04-21T10:18:58.855Z,22.00
2019-04-21T10:25:04.640Z,22.00
2019-04-21T10:31:09.207Z,22.20
2019-04-21T10:37:13.957Z,22.00
2019-04-21T10:43:22.076Z,21.80
2019-04-21T10:49:24.468Z,22.10
2019-04-21T10:55:45.057Z,22.00
2019-04-21T11:01:36.783Z,22.00
2019-04-21T11:08:01.199Z,22.20
2019-04-21T11:13:54.755Z,22.30
2019-04-21T11:19:59.281Z,22.10
2019-04-21T11:26:04.392Z,22.20
2019-04-21T11:32:09.333Z,22.10
2019-04-21T11:38:21.831Z,22.40
2019-04-21T11:44:24.740Z,22.20
2019-04-21T11:50:29.211Z,22.30
2019-04-21T11:56:34.800Z,22.50
2019-04-21T12:02:39.648Z,22.40
2019-04-21T12:08:49.010Z,22.50
2019-04-21T12:14:50.328Z,22.90
2019-04-21T12:20:55.661Z,22.70
2019-04-21T12:27:00.399Z,22.60
2019-04-21T12:33:12.206Z,23.00
2019-04-21T12:39:16.901Z,22.90
2019-04-21T12:45:22.092Z,22.80
2019-04-21T12:51:27.790Z,22.90
2019-04-21T12:57:33.256Z,22.90
2019-04-21T13:03:37.758Z,23.00
2019-04-21T13:09:42.134Z,23.10
2019-04-21T13:15:47.326Z,23.10
2019-04-21T13:21:52.062Z,22.90
2019-04-21T13:27:56.538Z,23.00
2019-04-21T13:34:02.044Z,23.10
2019-04-21T13:40:45.042Z,22.90
2019-04-21T13:46:32.598Z,23.10
2019-04-21T13:52:38.203Z,23.10
2019-04-21T13:58:44.219Z,23.20
2019-04-21T14:04:49.669Z,23.10
2019-04-21T14:10:55.574Z,23.10
2019-04-21T14:17:00.487Z,23.00
2019-04-21T14:23:15.787Z,23.20
2019-04-21T14:29:11.400Z,23.40
2019-04-21T14:35:16.677Z,23.40
2019-04-21T14:41:22.138Z,23.20
2019-04-21T14:47:35.079Z,23.30
2019-04-21T14:54:01.797Z,23.30
2019-04-21T15:00:11.083Z,23.40
2019-04-21T15:06:15.778Z,23.30
2019-04-21T15:12:20.219Z,23.10
2019-04-21T15:18:24.587Z,23.40
2019-04-21T15:24:30.168Z,23.30
2019-04-21T15:30:34.595Z,23.20
2019-04-21T15:36:40.074Z,23.40
2019-04-21T15:42:44.455Z,23.40
2019-04-21T15:48:48.922Z,23.40
2019-04-21T15:54:56.914Z,23.50
2019-04-21T16:01:36.607Z,23.40
2019-04-21T16:07:42.292Z,23.30
2019-04-21T16:13:47.835Z,23.30
2019-04-21T16:19:52.277Z,23.10
2019-04-21T16:25:57.003Z,22.90
2019-04-21T16:32:01.714Z,22.70
2019-04-21T16:38:06.171Z,22.50
2019-04-21T16:44:11.291Z,22.50
2019-04-21T16:50:17.254Z,22.50
2019-04-21T16:56:29.196Z,22.50
2019-04-21T17:02:34.551Z,22.30
2019-04-21T17:08:39.048Z,22.10
2019-04-21T17:14:57.116Z,21.90
2019-04-21T17:20:55.383Z,21.70
2019-04-21T17:26:55.519Z,21.70
2019-04-21T17:33:01.306Z,21.40
2019-04-21T17:39:08.962Z,21.30
2019-04-21T17:45:13.445Z,21.00
2019-04-21T17:51:49.306Z,20.90
2019-04-21T17:58:06.699Z,20.60
2019-04-21T18:04:15.177Z,20.40
2019-04-21T18:10:19.195Z,20.20
2019-04-21T18:16:19.193Z,20.00
2019-04-21T18:22:49.871Z,19.80
2019-04-21T18:28:56.869Z,19.60
2019-04-21T18:35:22.611Z,19.30
2019-04-21T18:41:32.137Z,19.20
2019-04-21T18:48:07.468Z,18.90
2019-04-21T18:54:27.208Z,18.60
2019-04-21T19:00:19.325Z,18.50
2019-04-21T19:06:20.592Z,18.30
2019-04-21T19:13:17.025Z,18.10
2019-04-21T19:18:56.880Z,17.80
2019-04-21T19:24:52.291Z,17.50
2019-04-21T19:31:05.154Z,17.40
2019-04-21T19:36:55.778Z,17.10
2019-04-21T19:43:00.919Z,17.00
2019-04-21T19:49:21.080Z,16.90
2019-04-21T19:55:06.575Z,16.70
2019-04-21T20:01:11.786Z,16.50
2019-04-21T20:07:28.799Z,16.30
2019-04-21T20:13:52.762Z,16.20
2019-04-21T20:19:28.196Z,16.20
2019-04-21T20:25:39.353Z,16.10
2019-04-21T20:31:56.311Z,15.90
2019-04-21T20:37:57.714Z,15.90
2019-04-21T20:44:11.877Z,15.80
2019-04-21T20:50:12.429Z,15.70
2019-04-21T20:56:16.055Z,15.60
2019-04-21T21:02:29.600Z,15.60
2019-04-21T21:08:35.799Z,15.30
2019-04-21T21:14:36.276Z,15.20
2019-04-21T21:20:48.356Z,15.10
2019-04-21T21:26:54.499Z,15.10
2019-04-21T21:33:05.677Z,15.00
2019-04-21T21:39:09.639Z,14.90
2019-04-21T21:45:02.849Z,14.80
2019-04-21T21:51:05.804Z,14.70
2019-04-21T21:57:06.608Z,14.60
2019-04-21T22:03:22.409Z,14.60
2019-04-21T22:09:16.901Z,14.50
2019-04-21T22:15:25.904Z,14.50
2019-04-21T22:21:49.421Z,14.40
2019-04-21T22:27:33.404Z,14.30
2019-04-21T22:33:40.285Z,14.20
2019-04-21T22:39:59.539Z,14.20
2019-04-21T22:45:49.673Z,14.10
2019-04-21T22:51:55.557Z,14.10
2019-04-21T22:58:01.576Z,14.10
2019-04-21T23:04:08.214Z,14.10
2019-04-21T23:10:13.579Z,14.10
2019-04-21T23:16:22.793Z,14.00
2019-04-21T23:22:51.317Z,14.00
2019-04-21T23:28:51.146Z,14.00
2019-04-21T23:34:38.749Z,14.00
2019-04-21T23:40:48.820Z,14.00
2019-04-21T23:46:54.704Z,14.10
2019-04-21T23:52:55.426Z,14.00
2019-04-21T23:59:04.163Z,13.80
